sensor_id;sensor_type;location;lat;lon;timestamp;P1;durP1;ratioP1;P2;durP2;ratioP2
66751;SDS011;53663;42.676;23.238;2023-12-20T00:01:32;45.65;;;23.40;;
66751;SDS011;53663;42.676;23.238;2023-12-20T00:03:57;48.70;;;23.05;;
66751;SDS011;53663;42.676;23.238;2023-12-20T00:06:23;41.42;;;22.13;;
66751;SDS011;53663;42.676;23.238;2023-12-20T00:08:49;36.42;;;20.25;;
66751;SDS011;53663;42.676;23.238;2023-12-20T00:11:14;37.63;;;20.20;;
66751;SDS011;53663;42.676;23.238;2023-12-20T00:13:40;43.15;;;21.50;;
66751;SDS011;53663;42.676;23.238;2023-12-20T00:16:05;43.00;;;22.88;;
66751;SDS011;53663;42.676;23.238;2023-12-20T00:18:31;43.75;;;21.90;;
66751;SDS011;53663;42.676;23.238;2023-12-20T00:20:56;43.30;;;21.55;;
66751;SDS011;53663;42.676;23.238;2023-12-20T00:23:22;46.08;;;21.25;;
66751;SDS011;53663;42.676;23.238;2023-12-20T00:25:48;46.85;;;21.88;;
66751;SDS011;53663;42.676;23.238;2023-12-20T00:28:14;41.33;;;21.85;;
66751;SDS011;53663;42.676;23.238;2023-12-20T00:30:40;48.20;;;21.40;;
66751;SDS011;53663;42.676;23.238;2023-12-20T00:33:06;46.90;;;22.27;;
66751;SDS011;53663;42.676;23.238;2023-12-20T00:35:31;51.10;;;22.00;;
66751;SDS011;53663;42.676;23.238;2023-12-20T00:37:57;41.75;;;21.35;;
66751;SDS011;53663;42.676;23.238;2023-12-20T00:40:23;43.95;;;21.92;;
66751;SDS011;53663;42.676;23.238;2023-12-20T00:42:49;41.05;;;21.35;;
66751;SDS011;53663;42.676;23.238;2023-12-20T00:45:14;46.22;;;20.90;;
66751;SDS011;53663;42.676;23.238;2023-12-20T00:47:40;40.25;;;20.23;;
66751;SDS011;53663;42.676;23.238;2023-12-20T00:50:06;46.58;;;21.95;;
66751;SDS011;53663;42.676;23.238;2023-12-20T00:52:32;48.10;;;23.33;;
66751;SDS011;53663;42.676;23.238;2023-12-20T00:54:58;38.30;;;21.77;;
66751;SDS011;53663;42.676;23.238;2023-12-20T00:57:23;46.65;;;21.58;;
66751;SDS011;53663;42.676;23.238;2023-12-20T00:59:49;41.30;;;20.05;;
66751;SDS011;53663;42.676;23.238;2023-12-20T01:02:14;39.38;;;21.58;;
66751;SDS011;53663;42.676;23.238;2023-12-20T01:04:40;47.30;;;21.92;;
66751;SDS011;53663;42.676;23.238;2023-12-20T01:07:05;46.75;;;21.02;;
66751;SDS011;53663;42.676;23.238;2023-12-20T01:09:31;41.95;;;21.00;;
66751;SDS011;53663;42.676;23.238;2023-12-20T01:11:57;39.55;;;20.00;;
66751;SDS011;53663;42.676;23.238;2023-12-20T01:14:22;38.55;;;18.75;;
66751;SDS011;53663;42.676;23.238;2023-12-20T01:16:48;39.13;;;19.70;;
66751;SDS011;53663;42.676;23.238;2023-12-20T01:19:13;36.92;;;19.00;;
66751;SDS011;53663;42.676;23.238;2023-12-20T01:21:41;45.55;;;20.15;;
66751;SDS011;53663;42.676;23.238;2023-12-20T01:24:07;34.03;;;18.33;;
66751;SDS011;53663;42.676;23.238;2023-12-20T01:26:32;35.78;;;17.92;;
66751;SDS011;53663;42.676;23.238;2023-12-20T01:28:58;37.58;;;17.45;;
66751;SDS011;53663;42.676;23.238;2023-12-20T01:31:24;33.67;;;17.05;;
66751;SDS011;53663;42.676;23.238;2023-12-20T01:33:49;31.58;;;17.13;;
66751;SDS011;53663;42.676;23.238;2023-12-20T01:36:15;35.22;;;17.27;;
66751;SDS011;53663;42.676;23.238;2023-12-20T01:38:41;30.13;;;16.83;;
66751;SDS011;53663;42.676;23.238;2023-12-20T01:41:06;35.05;;;17.60;;
66751;SDS011;53663;42.676;23.238;2023-12-20T01:43:32;41.75;;;16.63;;
66751;SDS011;53663;42.676;23.238;2023-12-20T01:45:58;36.30;;;18.02;;
66751;SDS011;53663;42.676;23.238;2023-12-20T01:48:24;32.65;;;17.33;;
66751;SDS011;53663;42.676;23.238;2023-12-20T01:50:51;37.08;;;17.45;;
66751;SDS011;53663;42.676;23.238;2023-12-20T01:53:18;32.55;;;18.20;;
66751;SDS011;53663;42.676;23.238;2023-12-20T01:55:45;35.53;;;17.25;;
66751;SDS011;53663;42.676;23.238;2023-12-20T01:58:13;36.55;;;18.73;;
66751;SDS011;53663;42.676;23.238;2023-12-20T02:00:40;35.00;;;17.88;;
66751;SDS011;53663;42.676;23.238;2023-12-20T02:03:06;37.05;;;18.02;;
66751;SDS011;53663;42.676;23.238;2023-12-20T02:05:32;39.33;;;19.13;;
66751;SDS011;53663;42.676;23.238;2023-12-20T02:07:59;37.50;;;18.65;;
66751;SDS011;53663;42.676;23.238;2023-12-20T02:10:25;40.75;;;19.80;;
66751;SDS011;53663;42.676;23.238;2023-12-20T02:12:51;42.72;;;19.35;;
66751;SDS011;53663;42.676;23.238;2023-12-20T02:15:17;40.00;;;19.63;;
66751;SDS011;53663;42.676;23.238;2023-12-20T02:17:43;41.78;;;18.40;;
66751;SDS011;53663;42.676;23.238;2023-12-20T02:20:09;40.80;;;20.48;;
66751;SDS011;53663;42.676;23.238;2023-12-20T02:22:35;40.35;;;19.95;;
66751;SDS011;53663;42.676;23.238;2023-12-20T02:25:00;41.35;;;19.52;;
66751;SDS011;53663;42.676;23.238;2023-12-20T02:27:26;37.80;;;19.55;;
66751;SDS011;53663;42.676;23.238;2023-12-20T02:29:53;48.20;;;19.83;;
66751;SDS011;53663;42.676;23.238;2023-12-20T02:32:18;33.42;;;17.48;;
66751;SDS011;53663;42.676;23.238;2023-12-20T02:34:47;41.58;;;18.58;;
66751;SDS011;53663;42.676;23.238;2023-12-20T02:37:13;37.78;;;18.48;;
66751;SDS011;53663;42.676;23.238;2023-12-20T02:39:38;42.78;;;19.23;;
66751;SDS011;53663;42.676;23.238;2023-12-20T02:42:04;40.30;;;19.77;;
66751;SDS011;53663;42.676;23.238;2023-12-20T02:44:29;37.15;;;18.73;;
66751;SDS011;53663;42.676;23.238;2023-12-20T02:46:55;42.30;;;19.60;;
66751;SDS011;53663;42.676;23.238;2023-12-20T02:49:20;40.50;;;19.52;;
66751;SDS011;53663;42.676;23.238;2023-12-20T02:51:46;31.33;;;18.33;;
66751;SDS011;53663;42.676;23.238;2023-12-20T02:54:12;39.50;;;17.77;;
66751;SDS011;53663;42.676;23.238;2023-12-20T02:56:37;35.08;;;18.00;;
66751;SDS011;53663;42.676;23.238;2023-12-20T02:59:03;39.00;;;17.35;;
66751;SDS011;53663;42.676;23.238;2023-12-20T03:01:31;34.25;;;17.45;;
66751;SDS011;53663;42.676;23.238;2023-12-20T03:03:56;36.47;;;17.70;;
66751;SDS011;53663;42.676;23.238;2023-12-20T03:06:22;35.97;;;17.15;;
66751;SDS011;53663;42.676;23.238;2023-12-20T03:08:47;41.90;;;17.40;;
66751;SDS011;53663;42.676;23.238;2023-12-20T03:11:13;40.38;;;16.98;;
66751;SDS011;53663;42.676;23.238;2023-12-20T03:13:39;34.85;;;16.95;;
66751;SDS011;53663;42.676;23.238;2023-12-20T03:16:08;34.83;;;16.70;;
66751;SDS011;53663;42.676;23.238;2023-12-20T03:18:37;43.65;;;17.45;;
66751;SDS011;53663;42.676;23.238;2023-12-20T03:21:02;37.67;;;18.08;;
66751;SDS011;53663;42.676;23.238;2023-12-20T03:23:29;29.38;;;16.55;;
66751;SDS011;53663;42.676;23.238;2023-12-20T03:25:56;43.25;;;19.40;;
66751;SDS011;53663;42.676;23.238;2023-12-20T03:28:21;40.95;;;18.48;;
66751;SDS011;53663;42.676;23.238;2023-12-20T03:30:48;37.20;;;18.77;;
66751;SDS011;53663;42.676;23.238;2023-12-20T03:33:14;38.97;;;18.45;;
66751;SDS011;53663;42.676;23.238;2023-12-20T03:35:40;33.03;;;17.05;;
66751;SDS011;53663;42.676;23.238;2023-12-20T03:38:06;35.00;;;18.23;;
66751;SDS011;53663;42.676;23.238;2023-12-20T03:40:32;33.47;;;17.77;;
66751;SDS011;53663;42.676;23.238;2023-12-20T03:42:57;32.30;;;16.30;;
66751;SDS011;53663;42.676;23.238;2023-12-20T03:45:23;34.55;;;17.25;;
66751;SDS011;53663;42.676;23.238;2023-12-20T03:47:49;39.15;;;18.52;;
66751;SDS011;53663;42.676;23.238;2023-12-20T03:50:14;35.55;;;16.70;;
66751;SDS011;53663;42.676;23.238;2023-12-20T03:52:40;32.17;;;17.15;;
66751;SDS011;53663;42.676;23.238;2023-12-20T03:55:06;34.67;;;16.85;;
66751;SDS011;53663;42.676;23.238;2023-12-20T03:57:32;35.03;;;17.65;;
66751;SDS011;53663;42.676;23.238;2023-12-20T03:59:58;30.52;;;16.50;;
66751;SDS011;53663;42.676;23.238;2023-12-20T04:02:23;33.38;;;16.17;;
66751;SDS011;53663;42.676;23.238;2023-12-20T04:04:49;29.80;;;16.63;;
66751;SDS011;53663;42.676;23.238;2023-12-20T04:07:14;30.90;;;15.95;;
66751;SDS011;53663;42.676;23.238;2023-12-20T04:09:40;28.50;;;14.95;;
66751;SDS011;53663;42.676;23.238;2023-12-20T04:12:06;35.20;;;18.30;;
66751;SDS011;53663;42.676;23.238;2023-12-20T04:14:32;37.70;;;17.63;;
66751;SDS011;53663;42.676;23.238;2023-12-20T04:16:57;42.75;;;18.85;;
66751;SDS011;53663;42.676;23.238;2023-12-20T04:19:23;32.45;;;17.38;;
66751;SDS011;53663;42.676;23.238;2023-12-20T04:21:48;36.08;;;19.05;;
66751;SDS011;53663;42.676;23.238;2023-12-20T04:24:14;38.17;;;18.35;;
66751;SDS011;53663;42.676;23.238;2023-12-20T04:26:39;35.50;;;16.88;;
66751;SDS011;53663;42.676;23.238;2023-12-20T04:29:05;38.20;;;17.70;;
66751;SDS011;53663;42.676;23.238;2023-12-20T04:31:31;32.03;;;16.48;;
66751;SDS011;53663;42.676;23.238;2023-12-20T04:33:56;35.50;;;16.95;;
66751;SDS011;53663;42.676;23.238;2023-12-20T04:36:21;33.35;;;16.25;;
66751;SDS011;53663;42.676;23.238;2023-12-20T04:38:48;30.77;;;15.50;;
66751;SDS011;53663;42.676;23.238;2023-12-20T04:41:14;26.85;;;15.18;;
66751;SDS011;53663;42.676;23.238;2023-12-20T04:43:41;38.53;;;17.52;;
66751;SDS011;53663;42.676;23.238;2023-12-20T04:46:06;31.30;;;16.92;;
66751;SDS011;53663;42.676;23.238;2023-12-20T04:48:32;34.42;;;17.35;;
66751;SDS011;53663;42.676;23.238;2023-12-20T04:51:01;36.83;;;17.45;;
66751;SDS011;53663;42.676;23.238;2023-12-20T04:53:27;34.00;;;17.75;;
66751;SDS011;53663;42.676;23.238;2023-12-20T04:55:52;32.88;;;15.45;;
66751;SDS011;53663;42.676;23.238;2023-12-20T04:58:18;31.40;;;15.00;;
66751;SDS011;53663;42.676;23.238;2023-12-20T05:00:44;29.23;;;16.52;;
66751;SDS011;53663;42.676;23.238;2023-12-20T05:03:10;32.90;;;15.57;;
66751;SDS011;53663;42.676;23.238;2023-12-20T05:05:35;37.10;;;17.13;;
66751;SDS011;53663;42.676;23.238;2023-12-20T05:08:01;35.53;;;18.42;;
66751;SDS011;53663;42.676;23.238;2023-12-20T05:10:26;41.70;;;22.63;;
66751;SDS011;53663;42.676;23.238;2023-12-20T05:12:53;59.15;;;27.60;;
66751;SDS011;53663;42.676;23.238;2023-12-20T05:15:18;63.35;;;29.58;;
66751;SDS011;53663;42.676;23.238;2023-12-20T05:17:44;67.97;;;27.77;;
66751;SDS011;53663;42.676;23.238;2023-12-20T05:20:10;57.63;;;26.58;;
66751;SDS011;53663;42.676;23.238;2023-12-20T05:22:35;62.55;;;26.67;;
66751;SDS011;53663;42.676;23.238;2023-12-20T05:25:01;57.70;;;26.58;;
66751;SDS011;53663;42.676;23.238;2023-12-20T05:27:27;59.40;;;28.58;;
66751;SDS011;53663;42.676;23.238;2023-12-20T05:29:52;63.70;;;30.13;;
66751;SDS011;53663;42.676;23.238;2023-12-20T05:32:18;58.33;;;28.20;;
66751;SDS011;53663;42.676;23.238;2023-12-20T05:34:43;55.95;;;24.50;;
66751;SDS011;53663;42.676;23.238;2023-12-20T05:37:09;57.83;;;26.55;;
66751;SDS011;53663;42.676;23.238;2023-12-20T05:39:35;57.17;;;25.77;;
66751;SDS011;53663;42.676;23.238;2023-12-20T05:42:00;58.05;;;25.45;;
66751;SDS011;53663;42.676;23.238;2023-12-20T05:44:26;52.45;;;25.50;;
66751;SDS011;53663;42.676;23.238;2023-12-20T05:46:51;46.33;;;24.92;;
66751;SDS011;53663;42.676;23.238;2023-12-20T05:49:17;52.28;;;25.65;;
66751;SDS011;53663;42.676;23.238;2023-12-20T05:51:42;52.35;;;25.38;;
66751;SDS011;53663;42.676;23.238;2023-12-20T05:54:08;43.28;;;20.98;;
66751;SDS011;53663;42.676;23.238;2023-12-20T05:56:34;33.47;;;19.85;;
66751;SDS011;53663;42.676;23.238;2023-12-20T05:59:00;43.47;;;20.25;;
66751;SDS011;53663;42.676;23.238;2023-12-20T06:01:26;42.92;;;22.05;;
66751;SDS011;53663;42.676;23.238;2023-12-20T06:03:51;41.20;;;21.17;;
66751;SDS011;53663;42.676;23.238;2023-12-20T06:06:17;39.47;;;21.30;;
66751;SDS011;53663;42.676;23.238;2023-12-20T06:08:43;42.15;;;19.63;;
66751;SDS011;53663;42.676;23.238;2023-12-20T06:11:08;43.28;;;20.42;;
66751;SDS011;53663;42.676;23.238;2023-12-20T06:13:34;46.58;;;21.85;;
66751;SDS011;53663;42.676;23.238;2023-12-20T06:16:00;46.42;;;23.15;;
66751;SDS011;53663;42.676;23.238;2023-12-20T06:18:26;48.78;;;23.05;;
66751;SDS011;53663;42.676;23.238;2023-12-20T06:20:52;48.08;;;22.42;;
66751;SDS011;53663;42.676;23.238;2023-12-20T06:23:17;39.08;;;19.95;;
66751;SDS011;53663;42.676;23.238;2023-12-20T06:25:43;38.35;;;22.52;;
66751;SDS011;53663;42.676;23.238;2023-12-20T06:28:09;38.92;;;22.30;;
66751;SDS011;53663;42.676;23.238;2023-12-20T06:30:35;47.97;;;25.30;;
66751;SDS011;53663;42.676;23.238;2023-12-20T06:33:01;53.10;;;28.23;;
66751;SDS011;53663;42.676;23.238;2023-12-20T06:35:27;48.22;;;26.88;;
66751;SDS011;53663;42.676;23.238;2023-12-20T06:37:52;75.65;;;33.85;;
66751;SDS011;53663;42.676;23.238;2023-12-20T06:40:18;118.78;;;52.08;;
66751;SDS011;53663;42.676;23.238;2023-12-20T06:42:43;131.60;;;55.30;;
66751;SDS011;53663;42.676;23.238;2023-12-20T06:45:09;131.00;;;58.47;;
66751;SDS011;53663;42.676;23.238;2023-12-20T06:47:35;95.75;;;44.33;;
66751;SDS011;53663;42.676;23.238;2023-12-20T06:50:01;87.82;;;41.20;;
66751;SDS011;53663;42.676;23.238;2023-12-20T06:52:26;86.80;;;39.35;;
66751;SDS011;53663;42.676;23.238;2023-12-20T06:54:52;72.03;;;35.65;;
66751;SDS011;53663;42.676;23.238;2023-12-20T06:57:17;78.80;;;37.33;;
66751;SDS011;53663;42.676;23.238;2023-12-20T06:59:45;77.38;;;36.13;;
66751;SDS011;53663;42.676;23.238;2023-12-20T07:02:10;62.13;;;32.22;;
66751;SDS011;53663;42.676;23.238;2023-12-20T07:04:39;54.63;;;30.55;;
66751;SDS011;53663;42.676;23.238;2023-12-20T07:07:06;48.33;;;27.52;;
66751;SDS011;53663;42.676;23.238;2023-12-20T07:09:32;35.55;;;22.02;;
66751;SDS011;53663;42.676;23.238;2023-12-20T07:11:58;32.20;;;21.00;;
66751;SDS011;53663;42.676;23.238;2023-12-20T07:14:24;34.83;;;20.58;;
66751;SDS011;53663;42.676;23.238;2023-12-20T07:16:49;41.05;;;24.33;;
66751;SDS011;53663;42.676;23.238;2023-12-20T07:19:15;40.97;;;21.88;;
66751;SDS011;53663;42.676;23.238;2023-12-20T07:21:40;44.15;;;27.55;;
66751;SDS011;53663;42.676;23.238;2023-12-20T07:24:06;58.50;;;36.50;;
66751;SDS011;53663;42.676;23.238;2023-12-20T07:26:32;75.07;;;45.80;;
66751;SDS011;53663;42.676;23.238;2023-12-20T07:28:58;118.55;;;69.60;;
66751;SDS011;53663;42.676;23.238;2023-12-20T07:31:23;119.57;;;62.33;;
66751;SDS011;53663;42.676;23.238;2023-12-20T07:33:49;116.60;;;63.03;;
66751;SDS011;53663;42.676;23.238;2023-12-20T07:36:15;127.28;;;65.25;;
66751;SDS011;53663;42.676;23.238;2023-12-20T07:38:43;132.82;;;62.97;;
66751;SDS011;53663;42.676;23.238;2023-12-20T07:41:09;116.82;;;58.10;;
66751;SDS011;53663;42.676;23.238;2023-12-20T07:43:36;113.20;;;53.35;;
66751;SDS011;53663;42.676;23.238;2023-12-20T07:46:07;117.18;;;54.17;;
66751;SDS011;53663;42.676;23.238;2023-12-20T07:48:37;130.90;;;59.65;;
66751;SDS011;53663;42.676;23.238;2023-12-20T07:51:03;148.70;;;63.05;;
66751;SDS011;53663;42.676;23.238;2023-12-20T07:53:29;233.55;;;88.97;;
66751;SDS011;53663;42.676;23.238;2023-12-20T07:55:55;188.88;;;73.72;;
66751;SDS011;53663;42.676;23.238;2023-12-20T07:58:20;234.23;;;95.22;;
66751;SDS011;53663;42.676;23.238;2023-12-20T08:00:47;191.05;;;81.45;;
66751;SDS011;53663;42.676;23.238;2023-12-20T08:03:12;226.55;;;97.00;;
66751;SDS011;53663;42.676;23.238;2023-12-20T08:05:38;216.07;;;92.00;;
66751;SDS011;53663;42.676;23.238;2023-12-20T08:08:06;247.10;;;102.28;;
66751;SDS011;53663;42.676;23.238;2023-12-20T08:10:32;151.10;;;68.20;;
66751;SDS011;53663;42.676;23.238;2023-12-20T08:12:57;103.40;;;46.40;;
66751;SDS011;53663;42.676;23.238;2023-12-20T08:15:23;134.13;;;58.67;;
66751;SDS011;53663;42.676;23.238;2023-12-20T08:17:49;98.80;;;48.95;;
66751;SDS011;53663;42.676;23.238;2023-12-20T08:20:16;97.20;;;50.40;;
66751;SDS011;53663;42.676;23.238;2023-12-20T08:22:42;107.38;;;53.55;;
66751;SDS011;53663;42.676;23.238;2023-12-20T08:25:07;98.22;;;51.65;;
66751;SDS011;53663;42.676;23.238;2023-12-20T08:27:34;90.13;;;46.38;;
66751;SDS011;53663;42.676;23.238;2023-12-20T08:30:03;78.32;;;40.28;;
66751;SDS011;53663;42.676;23.238;2023-12-20T08:32:29;69.55;;;40.30;;
66751;SDS011;53663;42.676;23.238;2023-12-20T08:34:55;75.35;;;40.15;;
66751;SDS011;53663;42.676;23.238;2023-12-20T08:37:20;82.80;;;44.22;;
66751;SDS011;53663;42.676;23.238;2023-12-20T08:39:46;118.13;;;62.22;;
66751;SDS011;53663;42.676;23.238;2023-12-20T08:42:12;76.80;;;40.35;;
66751;SDS011;53663;42.676;23.238;2023-12-20T08:44:37;71.55;;;35.20;;
66751;SDS011;53663;42.676;23.238;2023-12-20T08:47:03;63.53;;;34.15;;
66751;SDS011;53663;42.676;23.238;2023-12-20T08:49:29;82.10;;;39.35;;
66751;SDS011;53663;42.676;23.238;2023-12-20T08:51:55;83.65;;;41.53;;
66751;SDS011;53663;42.676;23.238;2023-12-20T08:54:20;135.18;;;59.55;;
66751;SDS011;53663;42.676;23.238;2023-12-20T08:56:46;90.88;;;43.97;;
66751;SDS011;53663;42.676;23.238;2023-12-20T08:59:12;91.18;;;42.22;;
66751;SDS011;53663;42.676;23.238;2023-12-20T09:01:38;78.18;;;38.83;;
66751;SDS011;53663;42.676;23.238;2023-12-20T09:04:03;102.32;;;46.13;;
66751;SDS011;53663;42.676;23.238;2023-12-20T09:06:29;94.75;;;46.42;;
66751;SDS011;53663;42.676;23.238;2023-12-20T09:08:55;92.32;;;44.17;;
66751;SDS011;53663;42.676;23.238;2023-12-20T09:11:24;92.25;;;42.97;;
66751;SDS011;53663;42.676;23.238;2023-12-20T09:13:55;98.68;;;45.13;;
66751;SDS011;53663;42.676;23.238;2023-12-20T09:16:21;111.85;;;49.22;;
66751;SDS011;53663;42.676;23.238;2023-12-20T09:18:46;124.38;;;54.45;;
66751;SDS011;53663;42.676;23.238;2023-12-20T09:21:12;119.85;;;52.83;;
66751;SDS011;53663;42.676;23.238;2023-12-20T09:23:38;119.38;;;52.22;;
66751;SDS011;53663;42.676;23.238;2023-12-20T09:26:03;123.60;;;52.17;;
66751;SDS011;53663;42.676;23.238;2023-12-20T09:28:29;111.95;;;50.53;;
66751;SDS011;53663;42.676;23.238;2023-12-20T09:30:56;113.40;;;50.78;;
66751;SDS011;53663;42.676;23.238;2023-12-20T09:33:22;121.65;;;53.72;;
66751;SDS011;53663;42.676;23.238;2023-12-20T09:35:48;131.38;;;56.00;;
66751;SDS011;53663;42.676;23.238;2023-12-20T09:38:13;126.70;;;54.63;;
66751;SDS011;53663;42.676;23.238;2023-12-20T09:40:41;131.52;;;56.22;;
66751;SDS011;53663;42.676;23.238;2023-12-20T09:43:11;123.50;;;56.45;;
66751;SDS011;53663;42.676;23.238;2023-12-20T09:45:41;134.57;;;55.60;;
66751;SDS011;53663;42.676;23.238;2023-12-20T09:48:10;134.17;;;58.23;;
66751;SDS011;53663;42.676;23.238;2023-12-20T09:50:37;137.18;;;59.95;;
66751;SDS011;53663;42.676;23.238;2023-12-20T09:53:03;137.00;;;58.72;;
66751;SDS011;53663;42.676;23.238;2023-12-20T09:55:30;121.05;;;55.47;;
66751;SDS011;53663;42.676;23.238;2023-12-20T09:58:00;135.52;;;59.33;;
66751;SDS011;53663;42.676;23.238;2023-12-20T10:00:26;137.15;;;61.97;;
66751;SDS011;53663;42.676;23.238;2023-12-20T10:05:26;136.50;;;58.80;;
66751;SDS011;53663;42.676;23.238;2023-12-20T10:07:52;131.30;;;58.05;;
66751;SDS011;53663;42.676;23.238;2023-12-20T10:10:18;132.57;;;57.13;;
66751;SDS011;53663;42.676;23.238;2023-12-20T10:13:25;130.32;;;57.63;;
66751;SDS011;53663;42.676;23.238;2023-12-20T10:15:34;121.70;;;54.85;;
66751;SDS011;53663;42.676;23.238;2023-12-20T10:18:00;125.85;;;54.33;;
66751;SDS011;53663;42.676;23.238;2023-12-20T10:20:27;121.78;;;53.88;;
66751;SDS011;53663;42.676;23.238;2023-12-20T10:23:02;115.57;;;54.80;;
66751;SDS011;53663;42.676;23.238;2023-12-20T10:25:28;111.13;;;52.25;;
66751;SDS011;53663;42.676;23.238;2023-12-20T10:28:08;104.35;;;51.80;;
66751;SDS011;53663;42.676;23.238;2023-12-20T10:30:44;93.72;;;49.17;;
66751;SDS011;53663;42.676;23.238;2023-12-20T10:33:09;101.93;;;53.33;;
66751;SDS011;53663;42.676;23.238;2023-12-20T10:35:35;104.47;;;54.45;;
66751;SDS011;53663;42.676;23.238;2023-12-20T10:38:05;104.22;;;54.88;;
66751;SDS011;53663;42.676;23.238;2023-12-20T10:40:34;103.78;;;53.72;;
66751;SDS011;53663;42.676;23.238;2023-12-20T10:43:04;103.22;;;54.90;;
66751;SDS011;53663;42.676;23.238;2023-12-20T10:45:30;101.13;;;55.42;;
66751;SDS011;53663;42.676;23.238;2023-12-20T10:47:55;99.70;;;53.53;;
66751;SDS011;53663;42.676;23.238;2023-12-20T10:50:22;96.55;;;54.17;;
66751;SDS011;53663;42.676;23.238;2023-12-20T10:52:48;91.05;;;52.55;;
66751;SDS011;53663;42.676;23.238;2023-12-20T10:55:21;97.65;;;53.63;;
66751;SDS011;53663;42.676;23.238;2023-12-20T10:57:47;104.20;;;55.17;;
66751;SDS011;53663;42.676;23.238;2023-12-20T11:00:17;101.53;;;54.58;;
66751;SDS011;53663;42.676;23.238;2023-12-20T11:02:44;95.28;;;52.55;;
66751;SDS011;53663;42.676;23.238;2023-12-20T11:05:12;93.35;;;52.65;;
66751;SDS011;53663;42.676;23.238;2023-12-20T11:13:32;95.00;;;54.63;;
66751;SDS011;53663;42.676;23.238;2023-12-20T11:16:02;92.40;;;53.75;;
66751;SDS011;53663;42.676;23.238;2023-12-20T11:18:29;89.68;;;53.00;;
66751;SDS011;53663;42.676;23.238;2023-12-20T11:20:55;100.50;;;54.50;;
66751;SDS011;53663;42.676;23.238;2023-12-20T11:23:26;88.38;;;51.72;;
66751;SDS011;53663;42.676;23.238;2023-12-20T11:25:52;87.78;;;50.58;;
66751;SDS011;53663;42.676;23.238;2023-12-20T11:28:23;84.10;;;48.30;;
66751;SDS011;53663;42.676;23.238;2023-12-20T11:33:17;92.25;;;49.67;;
66751;SDS011;53663;42.676;23.238;2023-12-20T11:38:13;94.35;;;48.13;;
66751;SDS011;53663;42.676;23.238;2023-12-20T11:40:40;85.55;;;49.55;;
66751;SDS011;53663;42.676;23.238;2023-12-20T11:43:06;95.53;;;51.15;;
66751;SDS011;53663;42.676;23.238;2023-12-20T11:45:32;100.05;;;53.47;;
66751;SDS011;53663;42.676;23.238;2023-12-20T11:48:00;113.50;;;59.55;;
66751;SDS011;53663;42.676;23.238;2023-12-20T11:50:27;96.82;;;56.03;;
66751;SDS011;53663;42.676;23.238;2023-12-20T11:52:54;106.45;;;58.45;;
66751;SDS011;53663;42.676;23.238;2023-12-20T11:55:21;108.90;;;60.03;;
66751;SDS011;53663;42.676;23.238;2023-12-20T11:57:46;114.10;;;61.35;;
66751;SDS011;53663;42.676;23.238;2023-12-20T12:00:13;124.75;;;61.53;;
66751;SDS011;53663;42.676;23.238;2023-12-20T12:02:39;117.72;;;64.75;;
66751;SDS011;53663;42.676;23.238;2023-12-20T12:05:05;118.60;;;66.72;;
66751;SDS011;53663;42.676;23.238;2023-12-20T12:07:32;118.85;;;64.40;;
66751;SDS011;53663;42.676;23.238;2023-12-20T12:09:57;119.38;;;63.60;;
66751;SDS011;53663;42.676;23.238;2023-12-20T12:12:23;118.35;;;62.58;;
66751;SDS011;53663;42.676;23.238;2023-12-20T12:14:50;118.18;;;62.92;;
66751;SDS011;53663;42.676;23.238;2023-12-20T12:17:16;120.28;;;65.25;;
66751;SDS011;53663;42.676;23.238;2023-12-20T12:19:42;117.38;;;64.45;;
66751;SDS011;53663;42.676;23.238;2023-12-20T12:24:42;124.65;;;64.53;;
66751;SDS011;53663;42.676;23.238;2023-12-20T12:27:09;127.05;;;67.57;;
66751;SDS011;53663;42.676;23.238;2023-12-20T12:29:35;142.23;;;69.95;;
66751;SDS011;53663;42.676;23.238;2023-12-20T12:32:08;137.02;;;71.75;;
66751;SDS011;53663;42.676;23.238;2023-12-20T12:34:35;139.20;;;68.90;;
66751;SDS011;53663;42.676;23.238;2023-12-20T12:37:01;141.75;;;70.10;;
66751;SDS011;53663;42.676;23.238;2023-12-20T12:39:28;139.48;;;70.38;;
66751;SDS011;53663;42.676;23.238;2023-12-20T12:41:58;194.32;;;92.93;;
66751;SDS011;53663;42.676;23.238;2023-12-20T12:44:23;161.32;;;84.88;;
66751;SDS011;53663;42.676;23.238;2023-12-20T12:46:50;168.43;;;82.88;;
66751;SDS011;53663;42.676;23.238;2023-12-20T12:49:16;139.52;;;67.65;;
66751;SDS011;53663;42.676;23.238;2023-12-20T12:51:42;129.20;;;64.20;;
66751;SDS011;53663;42.676;23.238;2023-12-20T12:54:08;133.48;;;65.60;;
66751;SDS011;53663;42.676;23.238;2023-12-20T12:56:35;151.07;;;68.75;;
66751;SDS011;53663;42.676;23.238;2023-12-20T12:59:01;153.10;;;74.05;;
66751;SDS011;53663;42.676;23.238;2023-12-20T13:01:27;141.77;;;68.03;;
66751;SDS011;53663;42.676;23.238;2023-12-20T13:03:53;142.82;;;72.00;;
66751;SDS011;53663;42.676;23.238;2023-12-20T13:06:19;157.05;;;75.50;;
66751;SDS011;53663;42.676;23.238;2023-12-20T13:08:45;152.38;;;68.80;;
66751;SDS011;53663;42.676;23.238;2023-12-20T13:11:10;168.25;;;77.18;;
66751;SDS011;53663;42.676;23.238;2023-12-20T13:13:36;191.18;;;84.38;;
66751;SDS011;53663;42.676;23.238;2023-12-20T13:16:01;146.05;;;71.45;;
66751;SDS011;53663;42.676;23.238;2023-12-20T13:18:27;143.02;;;67.60;;
66751;SDS011;53663;42.676;23.238;2023-12-20T13:20:53;141.25;;;69.43;;
66751;SDS011;53663;42.676;23.238;2023-12-20T13:23:19;146.68;;;66.97;;
66751;SDS011;53663;42.676;23.238;2023-12-20T13:25:44;147.30;;;68.78;;
66751;SDS011;53663;42.676;23.238;2023-12-20T13:28:11;150.73;;;66.78;;
66751;SDS011;53663;42.676;23.238;2023-12-20T13:30:37;141.57;;;66.32;;
66751;SDS011;53663;42.676;23.238;2023-12-20T13:33:04;155.57;;;63.50;;
66751;SDS011;53663;42.676;23.238;2023-12-20T13:35:30;149.95;;;64.78;;
66751;SDS011;53663;42.676;23.238;2023-12-20T13:37:57;146.80;;;66.55;;
66751;SDS011;53663;42.676;23.238;2023-12-20T13:40:23;151.18;;;65.20;;
66751;SDS011;53663;42.676;23.238;2023-12-20T13:42:49;151.98;;;65.63;;
66751;SDS011;53663;42.676;23.238;2023-12-20T13:45:14;152.95;;;69.00;;
66751;SDS011;53663;42.676;23.238;2023-12-20T13:47:40;159.57;;;72.47;;
66751;SDS011;53663;42.676;23.238;2023-12-20T13:50:05;148.88;;;70.25;;
66751;SDS011;53663;42.676;23.238;2023-12-20T13:52:31;147.93;;;69.95;;
66751;SDS011;53663;42.676;23.238;2023-12-20T13:54:57;148.52;;;65.72;;
66751;SDS011;53663;42.676;23.238;2023-12-20T13:57:22;141.10;;;65.15;;
66751;SDS011;53663;42.676;23.238;2023-12-20T13:59:48;192.93;;;79.35;;
66751;SDS011;53663;42.676;23.238;2023-12-20T14:02:13;190.30;;;85.85;;
66751;SDS011;53663;42.676;23.238;2023-12-20T14:04:39;199.05;;;86.35;;
66751;SDS011;53663;42.676;23.238;2023-12-20T14:07:05;194.15;;;85.20;;
66751;SDS011;53663;42.676;23.238;2023-12-20T14:09:32;182.55;;;82.43;;
66751;SDS011;53663;42.676;23.238;2023-12-20T14:11:58;184.50;;;83.32;;
66751;SDS011;53663;42.676;23.238;2023-12-20T14:14:24;184.23;;;83.22;;